createdAt,value
2022-11-22T00:01:28.617Z,7.55
2022-11-22T00:06:27.309Z,9.00
2022-11-22T00:11:26.032Z,8.63
2022-11-22T00:16:24.797Z,8.50
2022-11-22T00:21:23.528Z,9.15
2022-11-22T00:26:22.275Z,8.75
2022-11-22T00:31:21.070Z,9.02
2022-11-22T00:36:19.860Z,8.25
2022-11-22T00:41:18.687Z,7.78
2022-11-22T00:46:17.525Z,9.57
2022-11-22T00:51:16.273Z,8.52
2022-11-22T00:56:14.977Z,9.02
2022-11-22T01:01:13.785Z,8.55
2022-11-22T01:06:12.561Z,8.27
2022-11-22T01:11:11.949Z,8.70
2022-11-22T01:16:11.882Z,8.50
2022-11-22T01:21:10.687Z,8.55
2022-11-22T01:26:09.863Z,8.20
2022-11-22T01:31:09.430Z,7.70
2022-11-22T01:36:08.173Z,8.13
2022-11-22T01:41:06.890Z,7.25
2022-11-22T01:46:18.958Z,9.05
2022-11-22T01:51:24.845Z,8.30
2022-11-22T01:56:24.570Z,8.55
2022-11-22T02:01:23.361Z,8.93
2022-11-22T02:06:25.805Z,8.88
2022-11-22T02:11:28.400Z,9.27
2022-11-22T02:16:30.010Z,8.52
2022-11-22T02:21:29.312Z,8.75
2022-11-22T02:26:29.758Z,8.68
2022-11-22T02:31:46.720Z,9.02
2022-11-22T02:36:53.010Z,9.65
2022-11-22T02:41:52.198Z,8.73
2022-11-22T02:46:54.895Z,9.63
2022-11-22T02:51:53.837Z,8.70
2022-11-22T02:56:52.583Z,9.27
2022-11-22T03:01:51.438Z,8.90
2022-11-22T03:06:59.001Z,8.85
2022-11-22T03:11:58.307Z,9.23
2022-11-22T03:16:57.136Z,8.75
2022-11-22T03:21:55.948Z,9.02
2022-11-22T03:26:54.741Z,8.52
2022-11-22T03:31:53.649Z,8.35
2022-11-22T03:36:52.438Z,8.13
2022-11-22T03:41:51.188Z,8.43
2022-11-22T03:46:50.079Z,8.85
2022-11-22T03:51:48.889Z,8.75
2022-11-22T03:56:47.693Z,8.77
2022-11-22T04:01:46.529Z,9.52
2022-11-22T04:06:45.331Z,8.82
2022-11-22T04:11:44.089Z,8.70
2022-11-22T04:16:42.911Z,8.50
2022-11-22T04:21:41.600Z,8.95
2022-11-22T04:26:40.341Z,9.38
2022-11-22T04:31:57.524Z,9.23
2022-11-22T04:36:56.451Z,8.55
2022-11-22T04:42:15.368Z,9.13
2022-11-22T04:47:46.147Z,8.15
2022-11-22T04:52:54.955Z,7.80
2022-11-22T04:57:59.236Z,8.20
2022-11-22T05:02:59.354Z,9.20
2022-11-22T05:07:59.110Z,8.60
2022-11-22T05:12:57.934Z,8.57
2022-11-22T05:17:56.700Z,8.38
2022-11-22T05:23:13.685Z,8.40
2022-11-22T05:28:12.400Z,9.50
2022-11-22T05:33:11.095Z,14.35
2022-11-22T05:38:09.823Z,7.80
2022-11-22T05:43:08.616Z,6.88
2022-11-22T05:48:07.362Z,6.95
2022-11-22T05:53:06.098Z,6.53
2022-11-22T05:58:04.832Z,7.25
2022-11-22T06:03:04.319Z,8.38
2022-11-22T06:08:03.215Z,7.97
2022-11-22T06:13:01.977Z,7.30
2022-11-22T06:18:00.671Z,8.45
2022-11-22T06:22:59.558Z,9.38
2022-11-22T06:27:59.622Z,8.35
2022-11-22T06:32:58.741Z,8.48
2022-11-22T06:38:00.703Z,7.88
2022-11-22T06:42:59.838Z,8.20
2022-11-22T06:47:59.096Z,8.02
2022-11-22T06:52:57.797Z,9.40
2022-11-22T06:57:56.509Z,8.93
2022-11-22T07:02:55.268Z,8.68
2022-11-22T07:07:56.773Z,9.27
2022-11-22T07:12:59.654Z,7.80
2022-11-22T07:17:58.429Z,8.30
2022-11-22T07:22:57.130Z,9.13
2022-11-22T07:27:55.865Z,8.48
2022-11-22T07:32:54.673Z,8.75
2022-11-22T07:37:53.437Z,8.10
2022-11-22T07:42:58.143Z,8.18
2022-11-22T07:48:00.434Z,8.95
2022-11-22T07:52:59.935Z,9.15
2022-11-22T07:57:59.768Z,9.75
2022-11-22T08:02:59.418Z,9.70
2022-11-22T08:07:58.158Z,8.05
2022-11-22T08:13:00.423Z,9.55
2022-11-22T08:17:59.386Z,9.50
2022-11-22T08:22:58.168Z,8.30
2022-11-22T08:27:57.050Z,8.55
2022-11-22T08:32:55.876Z,8.50
2022-11-22T08:37:57.284Z,8.90
2022-11-22T08:42:56.631Z,9.45
2022-11-22T08:47:58.352Z,8.40
2022-11-22T08:52:57.238Z,7.88
2022-11-22T08:57:59.951Z,8.85
2022-11-22T09:02:58.797Z,8.88
2022-11-22T09:13:17.185Z,8.57
2022-11-22T09:18:16.077Z,8.90
2022-11-22T09:23:14.820Z,7.95
2022-11-22T09:28:13.532Z,8.15
2022-11-22T09:33:12.281Z,9.00
2022-11-22T09:38:11.121Z,7.97
2022-11-22T09:43:38.965Z,7.00
2022-11-22T09:48:49.670Z,6.97
2022-11-22T09:53:54.563Z,7.80
2022-11-22T09:59:00.664Z,7.53
2022-11-22T10:04:12.626Z,7.00
2022-11-22T10:09:45.374Z,7.50
2022-11-22T10:15:02.847Z,7.20
2022-11-22T10:20:20.928Z,7.20
2022-11-22T10:25:22.268Z,8.20
2022-11-22T10:30:21.756Z,7.70
2022-11-22T10:36:22.944Z,6.57
2022-11-22T10:41:45.848Z,8.05
2022-11-22T10:46:57.291Z,7.05
2022-11-22T10:51:59.331Z,7.40
2022-11-22T10:57:13.015Z,7.45
2022-11-22T11:02:43.600Z,7.53
2022-11-22T11:07:47.769Z,8.60
2022-11-22T11:12:53.249Z,8.88
2022-11-22T11:18:01.206Z,9.15
2022-11-22T11:23:14.120Z,9.90
2022-11-22T11:28:30.126Z,9.98
2022-11-22T11:33:30.650Z,10.65
2022-11-22T11:38:33.763Z,8.93
2022-11-22T11:43:32.504Z,9.88
2022-11-22T11:48:38.204Z,10.98
2022-11-22T11:53:37.765Z,10.57
2022-11-22T11:58:36.556Z,10.50
2022-11-22T12:03:35.463Z,11.75
2022-11-22T12:08:34.229Z,13.13
2022-11-22T12:19:14.451Z,12.00
2022-11-22T12:29:46.073Z,11.80
2022-11-22T12:34:53.240Z,10.85
2022-11-22T12:39:55.644Z,11.68
2022-11-22T12:45:02.137Z,11.23
2022-11-22T12:50:16.317Z,12.38
2022-11-22T12:55:22.883Z,10.85
2022-11-22T13:00:24.949Z,12.02
2022-11-22T13:05:31.329Z,11.57
2022-11-22T13:10:37.566Z,10.85
2022-11-22T13:15:40.238Z,11.90
2022-11-22T13:20:45.749Z,11.48
2022-11-22T13:26:10.350Z,10.73
2022-11-22T13:31:17.779Z,11.02
2022-11-22T13:36:31.759Z,11.52
2022-11-22T13:41:40.225Z,11.55
2022-11-22T13:46:57.107Z,10.50
2022-11-22T13:52:00.804Z,11.15
2022-11-22T13:57:05.413Z,10.02
2022-11-22T14:02:04.559Z,10.10
2022-11-22T14:07:21.243Z,9.23
2022-11-22T14:12:45.060Z,9.73
2022-11-22T14:18:00.737Z,9.27
2022-11-22T14:28:36.919Z,9.55
2022-11-22T14:33:36.483Z,10.48
2022-11-22T14:38:41.302Z,11.60
2022-11-22T14:43:42.015Z,11.23
2022-11-22T14:48:53.145Z,11.45
2022-11-22T14:53:56.174Z,11.43
2022-11-22T14:59:01.385Z,10.98
2022-11-22T15:09:15.254Z,11.27
2022-11-22T15:09:52.870Z,11.48
2022-11-22T15:14:58.219Z,11.02
2022-11-22T15:58:47.875Z,15.55
2022-11-22T16:03:59.110Z,15.35
2022-11-22T16:09:01.619Z,16.05
2022-11-22T16:14:00.561Z,16.40
2022-11-22T16:19:22.141Z,14.95
2022-11-22T16:24:20.899Z,16.55
2022-11-22T16:29:32.509Z,15.25
2022-11-22T16:34:31.704Z,18.88
2022-11-22T16:39:31.435Z,16.95
2022-11-22T16:44:30.542Z,14.52
2022-11-22T16:49:31.950Z,16.13
2022-11-22T16:54:32.648Z,16.50
2022-11-22T16:59:31.638Z,16.95
2022-11-22T17:04:37.882Z,17.50
2022-11-22T17:09:39.613Z,15.45
2022-11-22T17:14:38.370Z,16.40
2022-11-22T17:19:52.611Z,15.98
2022-11-22T17:24:52.287Z,14.88
2022-11-22T17:29:51.410Z,14.93
2022-11-22T17:34:50.366Z,15.15
2022-11-22T17:39:52.237Z,13.65
2022-11-22T17:44:50.986Z,14.77
2022-11-22T17:49:49.772Z,13.98
2022-11-22T17:54:48.477Z,8.52
2022-11-22T17:59:47.208Z,15.02
2022-11-22T18:04:46.014Z,14.75
2022-11-22T18:09:44.989Z,13.80
2022-11-22T18:14:44.919Z,14.80
2022-11-22T18:19:43.826Z,14.38
2022-11-22T18:24:42.584Z,13.52
2022-11-22T18:29:42.853Z,14.32
2022-11-22T18:34:42.604Z,13.38
2022-11-22T18:39:41.383Z,14.60
2022-11-22T18:44:40.236Z,14.32
2022-11-22T18:49:39.080Z,16.50
2022-11-22T18:54:37.833Z,13.25
2022-11-22T18:59:36.743Z,12.57
2022-11-22T19:04:35.696Z,12.70
2022-11-22T19:09:34.392Z,12.45
2022-11-22T19:14:33.460Z,11.88
2022-11-22T19:19:32.766Z,12.32
2022-11-22T19:24:34.378Z,11.50
2022-11-22T19:29:35.329Z,11.38
2022-11-22T19:34:34.408Z,11.80
2022-11-22T19:39:33.304Z,12.00
2022-11-22T19:44:32.147Z,10.77
2022-11-22T19:49:31.209Z,12.25
2022-11-22T19:54:30.245Z,12.13
2022-11-22T19:59:30.370Z,14.10
2022-11-22T20:04:29.383Z,14.13
2022-11-22T20:09:28.304Z,14.45
2022-11-22T20:14:27.320Z,15.73
2022-11-22T20:19:31.154Z,14.63
2022-11-22T20:24:33.138Z,14.38
2022-11-22T20:29:32.554Z,16.92
2022-11-22T20:34:33.695Z,15.82
2022-11-22T20:39:35.572Z,15.88
2022-11-22T20:44:34.683Z,14.70
2022-11-22T20:49:33.471Z,15.45
2022-11-22T20:54:32.512Z,15.60
2022-11-22T20:59:31.413Z,15.38
2022-11-22T21:04:30.480Z,16.33
2022-11-22T21:09:29.571Z,16.30
2022-11-22T21:14:28.409Z,14.20
2022-11-22T21:19:27.307Z,14.45
2022-11-22T21:24:26.028Z,15.07
2022-11-22T21:29:24.853Z,15.50
2022-11-22T21:34:23.589Z,13.85
2022-11-22T21:39:22.369Z,12.93
2022-11-22T21:44:21.111Z,16.67
2022-11-22T21:49:19.872Z,15.35
2022-11-22T21:54:18.741Z,14.43
2022-11-22T21:59:17.733Z,12.32
2022-11-22T22:04:16.688Z,13.65
2022-11-22T22:09:15.400Z,14.35
2022-11-22T22:14:14.978Z,14.48
2022-11-22T22:19:14.931Z,13.98
2022-11-22T22:24:13.938Z,14.13
2022-11-22T22:29:12.883Z,14.25
2022-11-22T22:34:11.726Z,12.75
2022-11-22T22:39:12.253Z,13.75
2022-11-22T22:44:11.463Z,13.10
2022-11-22T22:49:10.297Z,12.93
2022-11-22T22:54:10.747Z,11.95
2022-11-22T22:59:09.531Z,12.50
2022-11-22T23:04:08.914Z,12.00
2022-11-22T23:09:09.900Z,13.07
2022-11-22T23:14:08.765Z,13.55
2022-11-22T23:19:08.118Z,12.55
2022-11-22T23:24:08.306Z,12.80
2022-11-22T23:29:07.184Z,12.80
2022-11-22T23:34:06.325Z,12.93
2022-11-22T23:39:05.300Z,12.18
2022-11-22T23:44:04.399Z,14.05
2022-11-22T23:49:04.589Z,12.63
2022-11-22T23:54:05.789Z,13.23
2022-11-22T23:59:05.852Z,13.20
